createdAt,value
2022-08-04T00:01:54.154Z,21.41
2022-08-04T00:04:38.013Z,21.39
2022-08-04T00:07:16.568Z,21.34
2022-08-04T00:10:00.030Z,21.31
2022-08-04T00:12:39.218Z,21.27
2022-08-04T00:15:15.086Z,21.26
2022-08-04T00:17:54.340Z,21.25
2022-08-04T00:20:29.480Z,21.24
2022-08-04T00:23:00.759Z,21.22
2022-08-04T00:25:30.399Z,21.20
2022-08-04T00:28:02.269Z,21.17
2022-08-04T00:30:34.103Z,21.10
2022-08-04T00:33:03.939Z,21.07
2022-08-04T00:35:33.764Z,21.08
2022-08-04T00:38:04.137Z,21.08
2022-08-04T00:40:53.794Z,21.10
2022-08-04T00:43:35.677Z,21.06
2022-08-04T00:46:41.667Z,21.03
2022-08-04T00:49:53.742Z,20.97
2022-08-04T00:52:46.935Z,20.83
2022-08-04T00:55:33.738Z,20.74
2022-08-04T00:58:19.089Z,20.68
2022-08-04T01:01:01.160Z,20.67
2022-08-04T01:04:09.202Z,20.68
2022-08-04T01:06:44.889Z,20.69
2022-08-04T01:09:48.899Z,20.71
2022-08-04T01:12:37.674Z,20.73
2022-08-04T01:15:23.570Z,20.75
2022-08-04T01:18:27.530Z,20.74
2022-08-04T01:21:30.309Z,20.70
2022-08-04T01:24:59.979Z,20.64
2022-08-04T01:28:02.399Z,20.57
2022-08-04T01:30:33.696Z,20.54
2022-08-04T01:33:13.881Z,20.54
2022-08-04T01:35:56.540Z,20.52
2022-08-04T01:38:42.691Z,20.50
2022-08-04T01:41:19.345Z,20.48
2022-08-04T01:44:03.140Z,20.44
2022-08-04T01:46:36.645Z,20.41
2022-08-04T01:49:07.418Z,20.38
2022-08-04T01:51:40.066Z,20.32
2022-08-04T01:54:10.700Z,20.27
2022-08-04T01:57:02.059Z,20.25
2022-08-04T02:00:08.868Z,20.20
2022-08-04T02:02:41.807Z,20.17
2022-08-04T02:05:20.206Z,20.17
2022-08-04T02:08:46.230Z,20.14
2022-08-04T02:11:26.252Z,20.07
2022-08-04T02:14:47.227Z,20.03
2022-08-04T02:17:51.833Z,19.99
2022-08-04T02:21:21.071Z,19.92
2022-08-04T02:24:34.509Z,19.84
2022-08-04T02:28:00.603Z,19.79
2022-08-04T02:31:30.434Z,19.77
2022-08-04T02:34:32.751Z,19.74
2022-08-04T02:37:34.458Z,19.68
2022-08-04T02:40:30.005Z,19.60
2022-08-04T02:43:11.172Z,19.55
2022-08-04T02:46:05.500Z,19.58
2022-08-04T02:48:57.919Z,19.61
2022-08-04T02:51:39.754Z,19.66
2022-08-04T02:54:31.562Z,19.70
2022-08-04T02:58:07.742Z,19.71
2022-08-04T03:01:07.904Z,19.70
2022-08-04T03:04:47.928Z,19.72
2022-08-04T03:08:43.068Z,19.72
2022-08-04T03:12:04.533Z,19.70
2022-08-04T03:15:45.084Z,19.71
2022-08-04T03:18:35.370Z,19.73
2022-08-04T03:21:47.263Z,19.72
2022-08-04T03:24:43.638Z,19.70
2022-08-04T03:27:28.752Z,19.67
2022-08-04T03:30:56.275Z,19.67
2022-08-04T03:33:37.875Z,19.65
2022-08-04T03:36:35.151Z,19.64
2022-08-04T03:39:48.645Z,19.52
2022-08-04T03:42:39.787Z,19.47
2022-08-04T03:45:38.988Z,19.46
2022-08-04T03:48:43.755Z,19.45
2022-08-04T03:51:52.992Z,19.43
2022-08-04T03:54:53.026Z,19.41
2022-08-04T03:58:09.584Z,19.36
2022-08-04T04:01:07.584Z,19.37
2022-08-04T04:04:29.484Z,19.41
2022-08-04T04:07:44.984Z,19.44
2022-08-04T04:10:52.586Z,19.44
2022-08-04T04:14:02.197Z,19.45
2022-08-04T04:17:09.294Z,19.49
2022-08-04T04:19:46.930Z,19.55
2022-08-04T04:22:52.680Z,19.63
2022-08-04T04:25:46.341Z,19.67
2022-08-04T04:28:44.736Z,19.68
2022-08-04T04:31:36.271Z,19.74
2022-08-04T04:34:46.234Z,19.78
2022-08-04T04:37:47.715Z,19.83
2022-08-04T04:40:57.862Z,19.87
2022-08-04T04:44:06.843Z,19.91
2022-08-04T04:47:17.641Z,19.97
2022-08-04T04:50:21.191Z,20.04
2022-08-04T04:53:36.259Z,20.12
2022-08-04T04:56:35.745Z,20.22
2022-08-04T04:59:15.701Z,20.33
2022-08-04T05:01:52.085Z,20.41
2022-08-04T05:04:58.521Z,20.53
2022-08-04T05:08:43.945Z,20.65
2022-08-04T05:11:49.545Z,20.79
2022-08-04T05:14:41.219Z,20.94
2022-08-04T05:17:32.006Z,21.11
2022-08-04T05:20:06.486Z,21.30
2022-08-04T05:22:57.065Z,21.48
2022-08-04T05:25:37.764Z,21.68
2022-08-04T05:28:18.674Z,21.92
2022-08-04T05:31:12.220Z,22.19
2022-08-04T05:33:54.714Z,22.46
2022-08-04T05:36:41.791Z,22.69
2022-08-04T05:39:19.486Z,22.96
2022-08-04T05:41:54.981Z,23.23
2022-08-04T05:44:28.275Z,23.51
2022-08-04T05:47:00.413Z,23.77
2022-08-04T05:49:30.534Z,24.00
2022-08-04T05:52:06.761Z,24.23
2022-08-04T05:54:38.097Z,24.48
2022-08-04T05:57:09.183Z,24.72
2022-08-04T05:59:42.543Z,24.96
2022-08-04T06:02:18.074Z,25.27
2022-08-04T06:04:52.807Z,25.64
2022-08-04T06:07:22.319Z,25.98
2022-08-04T06:09:51.575Z,26.27
2022-08-04T06:12:37.873Z,26.58
2022-08-04T06:15:11.406Z,26.91
2022-08-04T06:19:56.791Z,27.20
2022-08-04T06:20:50.024Z,27.57
2022-08-04T06:23:22.105Z,27.83
2022-08-04T06:25:57.361Z,28.01
2022-08-04T06:28:29.333Z,28.13
2022-08-04T06:32:26.837Z,28.33
2022-08-04T06:33:54.316Z,28.63
2022-08-04T06:36:25.483Z,28.81
2022-08-04T06:38:58.824Z,28.95
2022-08-04T06:41:31.066Z,29.14
2022-08-04T06:44:05.443Z,29.33
2022-08-04T06:46:41.528Z,29.49
2022-08-04T06:49:13.681Z,29.63
2022-08-04T06:51:49.506Z,29.77
2022-08-04T06:54:18.971Z,29.97
2022-08-04T06:56:49.962Z,30.16
2022-08-04T06:59:24.029Z,30.38
2022-08-04T07:01:54.552Z,30.60
2022-08-04T07:04:24.359Z,30.87
2022-08-04T07:06:56.078Z,31.09
2022-08-04T07:09:25.502Z,31.21
2022-08-04T07:11:55.730Z,31.31
2022-08-04T07:14:27.355Z,31.42
2022-08-04T07:16:57.368Z,31.57
2022-08-04T07:19:26.555Z,31.79
2022-08-04T07:22:16.824Z,31.85
2022-08-04T07:24:46.628Z,31.96
2022-08-04T07:27:17.636Z,32.08
2022-08-04T07:30:07.708Z,32.26
2022-08-04T07:32:41.717Z,32.33
2022-08-04T07:36:04.039Z,32.34
2022-08-04T07:38:04.217Z,32.37
2022-08-04T07:40:40.596Z,32.43
2022-08-04T07:43:10.431Z,32.55
2022-08-04T07:45:39.645Z,32.70
2022-08-04T07:48:12.657Z,32.83
2022-08-04T07:50:45.007Z,32.96
2022-08-04T07:53:53.069Z,33.07
2022-08-04T07:56:04.373Z,33.13
2022-08-04T07:58:33.334Z,33.21
2022-08-04T08:01:02.543Z,33.25
2022-08-04T08:03:32.582Z,33.34
2022-08-04T08:06:30.600Z,33.46
2022-08-04T08:08:52.002Z,33.49
2022-08-04T08:11:21.581Z,33.54
2022-08-04T08:13:51.212Z,33.63
2022-08-04T08:16:21.318Z,33.70
2022-08-04T08:18:56.405Z,33.83
2022-08-04T08:21:25.662Z,33.98
2022-08-04T08:23:56.178Z,34.13
2022-08-04T08:26:25.645Z,34.27
2022-08-04T08:28:54.823Z,34.22
2022-08-04T08:31:57.506Z,34.17
2022-08-04T08:34:14.462Z,34.15
2022-08-04T08:37:14.131Z,34.19
2022-08-04T08:40:01.743Z,34.31
2022-08-04T08:42:59.234Z,34.38
2022-08-04T08:46:49.545Z,34.24
2022-08-04T08:50:03.061Z,34.24
2022-08-04T08:53:29.183Z,34.25
2022-08-04T08:56:10.025Z,34.25
2022-08-04T08:59:24.395Z,34.17
2022-08-04T09:02:40.923Z,34.14
2022-08-04T09:05:55.511Z,34.20
2022-08-04T09:09:04.673Z,34.28
2022-08-04T09:12:30.492Z,34.24
2022-08-04T09:15:38.003Z,34.43
2022-08-04T09:18:21.275Z,34.72
2022-08-04T09:21:37.714Z,34.78
2022-08-04T09:24:35.816Z,34.63
2022-08-04T09:27:18.546Z,34.54
2022-08-04T09:30:13.847Z,34.79
2022-08-04T09:33:16.505Z,35.12
2022-08-04T09:36:03.126Z,35.13
2022-08-04T09:39:09.802Z,35.02
2022-08-04T09:42:23.170Z,35.06
2022-08-04T09:45:43.266Z,35.21
2022-08-04T09:48:55.800Z,35.39
2022-08-04T09:51:56.952Z,35.42
2022-08-04T09:54:58.857Z,35.15
2022-08-04T09:58:12.992Z,35.06
2022-08-04T10:00:50.145Z,34.96
2022-08-04T10:03:25.079Z,34.89
2022-08-04T10:06:31.947Z,34.81
2022-08-04T10:09:45.117Z,34.62
2022-08-04T10:12:25.264Z,34.56
2022-08-04T10:15:11.698Z,34.61
2022-08-04T10:18:17.447Z,34.65
2022-08-04T10:21:10.266Z,34.57
2022-08-04T10:24:13.338Z,34.66
2022-08-04T10:27:23.011Z,34.66
2022-08-04T10:29:58.770Z,34.52
2022-08-04T10:32:43.117Z,34.55
2022-08-04T10:35:23.799Z,34.68
2022-08-04T10:41:50.827Z,34.20
2022-08-04T10:45:01.325Z,34.05
2022-08-04T10:47:35.691Z,33.95
2022-08-04T10:50:09.437Z,33.76
2022-08-04T10:53:09.936Z,33.66
2022-08-04T10:56:07.379Z,33.57
2022-08-04T10:58:48.561Z,33.41
2022-08-04T11:01:59.846Z,33.22
2022-08-04T11:04:47.638Z,32.93
2022-08-04T11:07:17.943Z,32.75
2022-08-04T11:09:52.762Z,32.59
2022-08-04T11:12:32.708Z,32.51
2022-08-04T11:15:23.857Z,32.42
2022-08-04T11:18:16.812Z,32.25
2022-08-04T11:21:03.553Z,32.06
2022-08-04T11:23:37.957Z,31.99
2022-08-04T11:26:18.451Z,31.92
2022-08-04T11:29:04.072Z,31.84
2022-08-04T11:31:40.184Z,31.65
2022-08-04T11:34:31.270Z,31.56
2022-08-04T11:37:19.333Z,31.61
2022-08-04T11:40:16.834Z,31.59
2022-08-04T11:43:08.983Z,31.52
2022-08-04T11:46:02.228Z,31.46
2022-08-04T11:49:14.517Z,31.50
2022-08-04T11:52:37.548Z,31.53
2022-08-04T11:56:09.410Z,31.48
2022-08-04T11:58:30.961Z,31.43
2022-08-04T12:01:29.464Z,31.41
2022-08-04T12:04:35.431Z,31.30
2022-08-04T12:07:30.677Z,31.19
2022-08-04T12:10:41.220Z,31.17
2022-08-04T12:14:15.529Z,31.11
2022-08-04T12:17:02.132Z,31.11
2022-08-04T12:20:03.932Z,31.17
2022-08-04T12:22:44.253Z,31.26
2022-08-04T12:25:44.879Z,31.34
2022-08-04T12:28:28.244Z,31.29
2022-08-04T12:31:28.295Z,31.25
2022-08-04T12:34:35.589Z,31.24
2022-08-04T12:37:49.755Z,31.27
2022-08-04T12:40:31.671Z,31.23
2022-08-04T12:43:12.060Z,31.13
2022-08-04T12:45:51.084Z,31.12
2022-08-04T12:48:22.913Z,31.14
2022-08-04T12:50:57.563Z,31.20
2022-08-04T12:53:50.569Z,31.21
2022-08-04T12:56:27.985Z,31.17
2022-08-04T12:59:12.802Z,31.13
2022-08-04T13:02:08.098Z,31.12
2022-08-04T13:04:51.314Z,31.11
2022-08-04T13:07:24.977Z,31.11
2022-08-04T13:09:54.269Z,31.11
2022-08-04T13:12:31.967Z,31.10
2022-08-04T13:15:22.214Z,31.06
2022-08-04T13:18:15.153Z,31.06
2022-08-04T13:20:46.063Z,31.07
2022-08-04T13:23:21.941Z,31.08
2022-08-04T13:26:42.489Z,31.07
2022-08-04T13:28:47.319Z,31.08
2022-08-04T13:31:21.095Z,31.10
2022-08-04T13:33:54.325Z,31.12
2022-08-04T13:36:29.053Z,31.13
2022-08-04T13:39:08.543Z,31.13
2022-08-04T13:41:43.890Z,31.13
2022-08-04T13:44:20.418Z,31.11
2022-08-04T13:47:01.597Z,31.09
2022-08-04T13:49:54.179Z,31.09
2022-08-04T13:52:26.981Z,31.13
2022-08-04T13:54:55.997Z,31.15
2022-08-04T13:57:45.196Z,31.16
2022-08-04T14:00:19.475Z,31.17
2022-08-04T14:03:23.863Z,31.19
2022-08-04T14:06:26.909Z,31.20
2022-08-04T14:09:00.836Z,31.21
2022-08-04T14:12:10.859Z,31.23
2022-08-04T14:14:34.183Z,31.23
2022-08-04T14:17:20.232Z,31.21
2022-08-04T14:20:00.120Z,31.17
2022-08-04T14:22:31.891Z,31.17
2022-08-04T14:25:18.084Z,31.20
2022-08-04T14:27:57.094Z,31.22
2022-08-04T14:30:37.837Z,31.22
2022-08-04T14:34:01.616Z,31.20
2022-08-04T14:36:04.358Z,31.19
2022-08-04T14:38:47.101Z,31.15
2022-08-04T14:41:19.810Z,31.14
2022-08-04T14:43:53.333Z,31.17
2022-08-04T14:46:30.353Z,31.21
2022-08-04T14:49:12.923Z,31.19
2022-08-04T14:51:45.107Z,31.17
2022-08-04T14:54:18.816Z,31.17
2022-08-04T14:57:02.093Z,31.18
2022-08-04T14:59:59.430Z,31.17
2022-08-04T15:02:36.243Z,31.17
2022-08-04T15:06:00.050Z,31.16
2022-08-04T15:07:58.486Z,31.16
2022-08-04T15:10:28.981Z,31.16
2022-08-04T15:12:59.532Z,31.16
2022-08-04T15:15:37.045Z,31.15
2022-08-04T15:18:11.558Z,31.16
2022-08-04T15:20:44.659Z,31.19
2022-08-04T15:23:14.337Z,31.20
2022-08-04T15:25:57.634Z,31.18
2022-08-04T15:28:29.755Z,31.18
2022-08-04T15:31:02.040Z,31.18
2022-08-04T15:33:34.056Z,31.15
2022-08-04T15:36:35.625Z,31.13
2022-08-04T15:39:30.081Z,31.07
2022-08-04T15:42:20.880Z,31.01
2022-08-04T15:45:21.936Z,30.94
2022-08-04T15:48:03.026Z,30.90
2022-08-04T15:50:33.006Z,30.91
2022-08-04T15:53:10.775Z,30.93
2022-08-04T15:55:43.961Z,30.89
2022-08-04T15:58:15.787Z,30.87
2022-08-04T16:00:50.780Z,30.86
2022-08-04T16:03:59.189Z,30.85
2022-08-04T16:06:26.833Z,30.85
2022-08-04T16:09:01.559Z,30.83
2022-08-04T16:11:33.357Z,30.82
2022-08-04T16:14:08.377Z,30.81
2022-08-04T16:16:37.588Z,30.81
2022-08-04T16:19:35.464Z,30.81
2022-08-04T16:22:05.556Z,30.80
2022-08-04T16:24:40.609Z,30.79
2022-08-04T16:27:11.711Z,30.79
2022-08-04T16:29:48.134Z,30.76
2022-08-04T16:32:26.485Z,30.74
2022-08-04T16:35:03.865Z,30.74
2022-08-04T16:37:37.975Z,30.69
2022-08-04T16:40:31.735Z,30.66
2022-08-04T16:43:14.834Z,30.61
2022-08-04T16:45:59.069Z,30.56
2022-08-04T16:48:34.714Z,30.53
2022-08-04T16:51:15.183Z,30.51
2022-08-04T16:53:52.324Z,30.49
2022-08-04T16:56:34.383Z,30.49
2022-08-04T16:59:12.185Z,30.48
2022-08-04T17:01:51.838Z,30.42
2022-08-04T17:04:35.291Z,30.36
2022-08-04T17:07:06.349Z,30.31
2022-08-04T17:09:35.466Z,30.26
2022-08-04T17:12:04.859Z,30.23
2022-08-04T17:14:33.984Z,30.20
2022-08-04T17:17:04.569Z,30.16
2022-08-04T17:19:38.075Z,30.11
2022-08-04T17:22:11.358Z,30.08
2022-08-04T17:24:41.220Z,30.04
2022-08-04T17:28:09.131Z,30.01
2022-08-04T17:30:00.282Z,29.96
2022-08-04T17:32:35.326Z,29.91
2022-08-04T17:35:10.070Z,29.88
2022-08-04T17:37:52.509Z,29.84
2022-08-04T17:40:25.383Z,29.82
2022-08-04T17:44:01.653Z,29.78
2022-08-04T17:46:28.793Z,29.73
2022-08-04T17:49:02.393Z,29.65
2022-08-04T17:52:05.354Z,29.59
2022-08-04T17:54:40.647Z,29.49
2022-08-04T17:57:21.330Z,29.43
2022-08-04T17:59:59.641Z,29.34
2022-08-04T18:02:34.984Z,29.26
2022-08-04T18:05:11.839Z,29.22
2022-08-04T18:08:39.050Z,29.16
2022-08-04T18:13:44.083Z,28.96
2022-08-04T18:16:21.765Z,28.89
2022-08-04T18:19:13.140Z,28.82
2022-08-04T18:22:00.265Z,28.76
2022-08-04T18:24:35.482Z,28.68
2022-08-04T18:27:26.476Z,28.58
2022-08-04T18:30:33.986Z,28.51
2022-08-04T18:33:24.617Z,28.42
2022-08-04T18:36:35.479Z,28.30
2022-08-04T18:38:58.913Z,28.22
2022-08-04T18:41:30.413Z,28.17
2022-08-04T18:44:27.395Z,28.10
2022-08-04T18:51:01.774Z,27.94
2022-08-04T18:52:45.411Z,27.84
2022-08-04T18:55:56.149Z,27.74
2022-08-04T18:58:11.788Z,27.64
2022-08-04T19:03:33.328Z,27.44
2022-08-04T19:06:03.156Z,27.35
2022-08-04T19:08:42.066Z,27.29
2022-08-04T19:11:35.232Z,27.21
2022-08-04T19:14:05.143Z,27.12
2022-08-04T19:16:47.317Z,27.05
2022-08-04T19:19:20.238Z,26.99
2022-08-04T19:22:00.350Z,26.94
2022-08-04T19:24:34.741Z,26.87
2022-08-04T19:27:16.326Z,26.80
2022-08-04T19:29:46.209Z,26.74
2022-08-04T19:32:16.279Z,26.72
2022-08-04T19:34:49.904Z,26.66
2022-08-04T19:37:58.416Z,26.57
2022-08-04T19:40:33.599Z,26.54
2022-08-04T19:43:15.290Z,26.51
2022-08-04T19:45:45.762Z,26.47
2022-08-04T19:51:04.641Z,26.30
2022-08-04T19:53:37.586Z,26.22
2022-08-04T19:56:07.570Z,26.16
2022-08-04T19:58:38.605Z,26.11
2022-08-04T20:01:14.429Z,26.03
2022-08-04T20:04:08.961Z,25.95
2022-08-04T20:06:39.802Z,25.87
2022-08-04T20:09:26.312Z,25.80
2022-08-04T20:11:57.344Z,25.74
2022-08-04T20:14:32.727Z,25.72
2022-08-04T20:17:10.351Z,25.68
2022-08-04T20:19:40.025Z,25.63
2022-08-04T20:22:51.945Z,25.62
2022-08-04T20:25:27.249Z,25.57
2022-08-04T20:28:00.081Z,25.53
2022-08-04T20:30:31.034Z,25.50
2022-08-04T20:33:04.088Z,25.47
2022-08-04T20:35:46.038Z,25.42
2022-08-04T20:38:33.388Z,25.33
2022-08-04T20:41:03.519Z,25.26
2022-08-04T20:43:32.904Z,25.20
2022-08-04T20:46:18.598Z,25.15
2022-08-04T20:48:52.622Z,25.07
2022-08-04T20:51:31.819Z,25.02
2022-08-04T20:54:04.448Z,24.99
2022-08-04T20:56:51.264Z,24.94
2022-08-04T20:59:22.896Z,24.88
2022-08-04T21:01:53.956Z,24.83
2022-08-04T21:04:31.635Z,24.79
2022-08-04T21:07:10.095Z,24.74
2022-08-04T21:09:50.636Z,24.69
2022-08-04T21:12:28.540Z,24.62
2022-08-04T21:15:13.700Z,24.56
2022-08-04T21:17:57.960Z,24.50
2022-08-04T21:20:39.535Z,24.44
2022-08-04T21:23:12.224Z,24.37
2022-08-04T21:25:51.182Z,24.31
2022-08-04T21:28:21.574Z,24.24
2022-08-04T21:30:55.793Z,24.18
2022-08-04T21:33:50.044Z,24.11
2022-08-04T21:36:27.431Z,24.04
2022-08-04T21:38:57.430Z,24.01
2022-08-04T21:41:27.262Z,24.00
2022-08-04T21:43:59.478Z,24.00
2022-08-04T21:46:31.349Z,23.98
2022-08-04T21:49:02.560Z,23.96
2022-08-04T21:51:58.488Z,23.92
2022-08-04T21:54:28.376Z,23.85
2022-08-04T21:56:57.567Z,23.79
2022-08-04T21:59:34.040Z,23.77
2022-08-04T22:02:15.335Z,23.74
2022-08-04T22:04:57.181Z,23.73
2022-08-04T22:07:50.483Z,23.70
2022-08-04T22:10:22.413Z,23.67
2022-08-04T22:13:06.861Z,23.63
2022-08-04T22:16:05.423Z,23.62
2022-08-04T22:18:28.033Z,23.58
2022-08-04T22:20:59.838Z,23.55
2022-08-04T22:23:31.037Z,23.53
2022-08-04T22:26:26.814Z,23.51
2022-08-04T22:28:58.455Z,23.49
2022-08-04T22:31:29.365Z,23.46
2022-08-04T22:34:18.311Z,23.44
2022-08-04T22:36:48.197Z,23.41
2022-08-04T22:39:17.180Z,23.37
2022-08-04T22:42:04.375Z,23.31
2022-08-04T22:44:34.135Z,23.24
2022-08-04T22:47:06.048Z,23.20
2022-08-04T22:49:37.874Z,23.16
2022-08-04T22:52:12.637Z,23.12
2022-08-04T22:54:50.888Z,23.00
2022-08-04T22:57:20.844Z,22.95
2022-08-04T23:00:11.978Z,22.92
2022-08-04T23:02:42.965Z,22.90
2022-08-04T23:05:15.757Z,22.89
2022-08-04T23:07:49.190Z,22.86
2022-08-04T23:10:18.878Z,22.83
2022-08-04T23:12:53.632Z,22.79
2022-08-04T23:15:22.569Z,22.75
2022-08-04T23:17:51.836Z,22.71
2022-08-04T23:20:23.410Z,22.67
2022-08-04T23:23:12.327Z,22.60
2022-08-04T23:26:07.080Z,22.55
2022-08-04T23:28:34.859Z,22.50
2022-08-04T23:31:05.527Z,22.47
2022-08-04T23:33:50.946Z,22.43
2022-08-04T23:36:30.073Z,22.39
2022-08-04T23:39:04.061Z,22.36
2022-08-04T23:41:54.669Z,22.33
2022-08-04T23:44:26.750Z,22.30
2022-08-04T23:47:04.633Z,22.27
2022-08-04T23:49:44.874Z,22.26
2022-08-04T23:52:27.923Z,22.23
2022-08-04T23:54:59.616Z,22.19
2022-08-04T23:57:31.406Z,22.16
